Channel Islands National Park, CA

12:04 PM PDT on September 02, 2014 (GMT -0700)
WFO LOX | Change Station
CLOSE
Current Station
Personal Weather Station
Location: Oxnard, CA
Elevation: 57 ft
Nearby Weather Stations

Elev 57 ft 34.21 °N, 119.14 °W | Updated 13 minutes ago

Scattered Clouds
Scattered Clouds
77.6 °F
Feels Like 79 °F
N
2.0
Wind Variable Wind from SSW
Gusts 2.0 mph

Today
High -- | Low -- °F
--% Chance of Precip.
Yesterday
High -- | Low -- °F
Precip. -- in
6:30 AM 7:21 PM
First Quarter, 54% visible
Pressure 29.85 in
Visibility 8.0 miles
Clouds Scattered Clouds 1800 ft
Heat Index 79 °F
Dew Point 64 °F
Humidity 62%
Rainfall 0.00 in
Snow Depth Not available.
UV 8 out of 12
Pollen 9.20 out of 12
Ozone Good
PM2.5 Moderate
Flu Activity Not available.
METAR KOXR 021851Z 25009KT 8SM SCT018 24/17 A2985 RMK AO2 SLP108 T02390172

More Conditions Fewer Conditions

Pressure 29.85 in
Visibility 8.0 miles
Clouds Scattered Clouds 1800 ft
Heat Index 79 °F
Dew Point 64 °F
Humidity 62%
Rainfall 0.00 in
Snow Depth Not available.
UV 8 out of 12
Pollen 9.20 out of 12
Ozone Good
PM2.5 Moderate
Flu Activity Not available.
METAR KOXR 021851Z 25009KT 8SM SCT018 24/17 A2985 RMK AO2 SLP108 T02390172

More Conditions Fewer Conditions

10-Day Weather Forecast

Almanac

Astronomy

Sep. 02, 2014 Rise Set
Actual Time 6:30 AM PDT 7:21 PM PDT
Civil Twilight 6:05 AM PDT 7:46 PM PDT
Nautical Twilight 5:35 AM PDT 8:16 PM PDT
Astronomical Twilight 5:04 AM PDT 8:47 PM PDT
Moon 2:01 PM PDT No Moon Set
Length of Visible Light 13h 41m
Length of Day
12h 50m
Tomorrow will be 2m 4s shorter.
First Quarter, 54% of the Moon is Illuminated
Today
First Quarter
Sep 8
Full
Sep 15
Last Quarter
Sep 24
New
Oct 1
First Quarter

Today's Extremes

State Highs State Lows

Community

WunderPhotos

Upload Photos

1,749,745 photos uploaded!

WunderBlogs® & News

By Dr. Jeff Masters
Director of Meteorology, Weather Underground
By Kari Strenfel
Meteorologist, Weather Underground
By Christopher C. Burt
Weather Historian, Weather Underground
September 2, 2014
September 2, 2014
September 2, 2014

Nearby

Air Quality

  Air Quality AQ Index Pollutant
Yesterday Moderate
PM2.5
Yesterday Good
OZONE
Current Moderate
PM2.5
Current Good
OZONE
Tuesday Moderate
PM2.5
Tuesday Good
OZONE
Wednesday Moderate
PM2.5
Wednesday Good
OZONE

Snow Depth

Station Depth Elevation
Leavitt Meadows 0 in 7200 ft
Summit Meadow 0 in 9122 ft
Forestdale Creek 0 in 8029 ft
Fallen Leaf 0 in 6300 ft
CSS Lab 0 in 6900 ft

Earthquake Activity

City Distance Mag. Time & Date
No recent earthquake activity has been reported nearby.
Minimum magnitude displayed is 2.5.

Coastal Water Temperatures

Place Temperature
Santa Monica Pier 72.0 °F
Los Angeles, CA 71.1 °F
Port San Luis, CA 62.1 °F

Nearby Weather Stations